sensor_id;sensor_type;location;lat;lon;timestamp;P1;durP1;ratioP1;P2;durP2;ratioP2
15293;SDS011;7748;52.474;13.454;2022-11-15T00:01:13;46.90;;;25.57;;
15293;SDS011;7748;52.474;13.454;2022-11-15T00:03:43;43.23;;;26.30;;
15293;SDS011;7748;52.474;13.454;2022-11-15T00:06:12;46.27;;;26.73;;
15293;SDS011;7748;52.474;13.454;2022-11-15T00:08:40;40.77;;;22.77;;
15293;SDS011;7748;52.474;13.454;2022-11-15T00:11:10;43.20;;;24.57;;
15293;SDS011;7748;52.474;13.454;2022-11-15T00:13:39;40.80;;;25.03;;
15293;SDS011;7748;52.474;13.454;2022-11-15T00:16:08;43.83;;;25.73;;
15293;SDS011;7748;52.474;13.454;2022-11-15T00:18:37;44.97;;;25.50;;
15293;SDS011;7748;52.474;13.454;2022-11-15T00:21:06;43.63;;;24.50;;
15293;SDS011;7748;52.474;13.454;2022-11-15T00:23:38;45.33;;;25.30;;
15293;SDS011;7748;52.474;13.454;2022-11-15T00:26:06;39.87;;;23.53;;
15293;SDS011;7748;52.474;13.454;2022-11-15T00:28:38;45.27;;;25.37;;
15293;SDS011;7748;52.474;13.454;2022-11-15T00:31:07;45.03;;;25.43;;
15293;SDS011;7748;52.474;13.454;2022-11-15T00:33:38;42.17;;;25.17;;
15293;SDS011;7748;52.474;13.454;2022-11-15T00:38:53;45.33;;;25.07;;
15293;SDS011;7748;52.474;13.454;2022-11-15T00:41:20;45.40;;;25.97;;
15293;SDS011;7748;52.474;13.454;2022-11-15T00:44:31;47.77;;;25.60;;
15293;SDS011;7748;52.474;13.454;2022-11-15T00:58:50;50.27;;;26.57;;
15293;SDS011;7748;52.474;13.454;2022-11-15T01:01:41;44.53;;;25.20;;
15293;SDS011;7748;52.474;13.454;2022-11-15T01:04:23;48.83;;;26.63;;
15293;SDS011;7748;52.474;13.454;2022-11-15T01:06:58;46.90;;;24.60;;
15293;SDS011;7748;52.474;13.454;2022-11-15T01:09:42;43.80;;;25.53;;
15293;SDS011;7748;52.474;13.454;2022-11-15T01:12:37;44.93;;;24.30;;
15293;SDS011;7748;52.474;13.454;2022-11-15T01:18:42;41.40;;;24.23;;
15293;SDS011;7748;52.474;13.454;2022-11-15T01:21:15;42.80;;;24.87;;
15293;SDS011;7748;52.474;13.454;2022-11-15T01:23:54;47.90;;;26.57;;
15293;SDS011;7748;52.474;13.454;2022-11-15T01:26:52;45.77;;;25.10;;
15293;SDS011;7748;52.474;13.454;2022-11-15T01:29:22;44.43;;;25.20;;
15293;SDS011;7748;52.474;13.454;2022-11-15T01:31:50;45.67;;;25.87;;
15293;SDS011;7748;52.474;13.454;2022-11-15T01:34:19;42.47;;;24.73;;
15293;SDS011;7748;52.474;13.454;2022-11-15T01:36:47;46.90;;;25.60;;
15293;SDS011;7748;52.474;13.454;2022-11-15T01:39:16;46.30;;;24.67;;
15293;SDS011;7748;52.474;13.454;2022-11-15T01:41:44;43.17;;;24.80;;
15293;SDS011;7748;52.474;13.454;2022-11-15T01:47:06;46.50;;;25.73;;
15293;SDS011;7748;52.474;13.454;2022-11-15T01:49:38;44.20;;;24.77;;
15293;SDS011;7748;52.474;13.454;2022-11-15T01:52:13;51.43;;;26.77;;
15293;SDS011;7748;52.474;13.454;2022-11-15T01:54:44;47.33;;;24.43;;
15293;SDS011;7748;52.474;13.454;2022-11-15T01:57:13;42.90;;;24.70;;
15293;SDS011;7748;52.474;13.454;2022-11-15T01:59:43;44.03;;;24.17;;
15293;SDS011;7748;52.474;13.454;2022-11-15T02:02:12;45.90;;;26.37;;
15293;SDS011;7748;52.474;13.454;2022-11-15T02:04:41;47.40;;;25.67;;
15293;SDS011;7748;52.474;13.454;2022-11-15T02:07:10;48.80;;;25.30;;
15293;SDS011;7748;52.474;13.454;2022-11-15T02:09:46;44.77;;;26.43;;
15293;SDS011;7748;52.474;13.454;2022-11-15T02:12:16;51.17;;;26.27;;
15293;SDS011;7748;52.474;13.454;2022-11-15T02:14:50;46.53;;;25.33;;
15293;SDS011;7748;52.474;13.454;2022-11-15T02:17:24;47.63;;;26.73;;
15293;SDS011;7748;52.474;13.454;2022-11-15T02:31:18;47.40;;;26.17;;
15293;SDS011;7748;52.474;13.454;2022-11-15T02:33:59;45.23;;;25.37;;
15293;SDS011;7748;52.474;13.454;2022-11-15T02:36:38;47.53;;;26.60;;
15293;SDS011;7748;52.474;13.454;2022-11-15T02:42:14;50.77;;;26.50;;
15293;SDS011;7748;52.474;13.454;2022-11-15T02:45:05;49.07;;;26.77;;
15293;SDS011;7748;52.474;13.454;2022-11-15T02:47:39;49.17;;;27.17;;
15293;SDS011;7748;52.474;13.454;2022-11-15T02:50:11;51.43;;;27.07;;
15293;SDS011;7748;52.474;13.454;2022-11-15T02:52:40;52.63;;;26.80;;
15293;SDS011;7748;52.474;13.454;2022-11-15T02:55:24;44.87;;;25.37;;
15293;SDS011;7748;52.474;13.454;2022-11-15T02:57:57;48.20;;;26.27;;
15293;SDS011;7748;52.474;13.454;2022-11-15T03:00:38;48.00;;;27.00;;
15293;SDS011;7748;52.474;13.454;2022-11-15T03:03:18;48.53;;;25.83;;
15293;SDS011;7748;52.474;13.454;2022-11-15T03:06:03;46.33;;;27.63;;
15293;SDS011;7748;52.474;13.454;2022-11-15T03:08:39;42.67;;;25.50;;
15293;SDS011;7748;52.474;13.454;2022-11-15T03:11:18;54.83;;;27.20;;
15293;SDS011;7748;52.474;13.454;2022-11-15T03:13:52;45.97;;;25.53;;
15293;SDS011;7748;52.474;13.454;2022-11-15T03:16:29;47.33;;;25.00;;
15293;SDS011;7748;52.474;13.454;2022-11-15T03:19:04;45.57;;;25.00;;
15293;SDS011;7748;52.474;13.454;2022-11-15T03:21:39;43.50;;;24.73;;
15293;SDS011;7748;52.474;13.454;2022-11-15T03:24:08;50.63;;;26.43;;
15293;SDS011;7748;52.474;13.454;2022-11-15T03:26:38;44.07;;;24.50;;
15293;SDS011;7748;52.474;13.454;2022-11-15T03:29:09;47.73;;;25.57;;
15293;SDS011;7748;52.474;13.454;2022-11-15T03:31:41;43.20;;;25.30;;
15293;SDS011;7748;52.474;13.454;2022-11-15T03:34:21;44.90;;;26.10;;
15293;SDS011;7748;52.474;13.454;2022-11-15T03:36:54;52.10;;;25.57;;
15293;SDS011;7748;52.474;13.454;2022-11-15T03:39:23;46.20;;;25.23;;
15293;SDS011;7748;52.474;13.454;2022-11-15T03:41:56;51.23;;;27.13;;
15293;SDS011;7748;52.474;13.454;2022-11-15T03:44:34;45.90;;;24.83;;
15293;SDS011;7748;52.474;13.454;2022-11-15T03:47:09;49.53;;;25.97;;
15293;SDS011;7748;52.474;13.454;2022-11-15T03:49:42;49.47;;;26.50;;
15293;SDS011;7748;52.474;13.454;2022-11-15T03:52:14;46.20;;;25.53;;
15293;SDS011;7748;52.474;13.454;2022-11-15T03:54:49;47.10;;;26.57;;
15293;SDS011;7748;52.474;13.454;2022-11-15T03:57:19;46.43;;;26.17;;
15293;SDS011;7748;52.474;13.454;2022-11-15T03:59:47;46.03;;;25.87;;
15293;SDS011;7748;52.474;13.454;2022-11-15T04:02:16;46.17;;;26.20;;
15293;SDS011;7748;52.474;13.454;2022-11-15T04:04:45;50.47;;;28.63;;
15293;SDS011;7748;52.474;13.454;2022-11-15T04:07:13;50.30;;;26.53;;
15293;SDS011;7748;52.474;13.454;2022-11-15T04:09:41;50.97;;;27.80;;
15293;SDS011;7748;52.474;13.454;2022-11-15T04:12:22;50.13;;;24.93;;
15293;SDS011;7748;52.474;13.454;2022-11-15T04:14:57;47.73;;;25.83;;
15293;SDS011;7748;52.474;13.454;2022-11-15T04:17:36;48.23;;;24.37;;
15293;SDS011;7748;52.474;13.454;2022-11-15T04:20:08;46.40;;;26.27;;
15293;SDS011;7748;52.474;13.454;2022-11-15T04:22:59;41.47;;;23.90;;
15293;SDS011;7748;52.474;13.454;2022-11-15T04:25:54;48.70;;;26.97;;
15293;SDS011;7748;52.474;13.454;2022-11-15T04:28:23;48.33;;;25.97;;
15293;SDS011;7748;52.474;13.454;2022-11-15T04:30:51;47.87;;;26.67;;
15293;SDS011;7748;52.474;13.454;2022-11-15T04:33:20;46.33;;;26.37;;
15293;SDS011;7748;52.474;13.454;2022-11-15T04:35:50;48.33;;;25.50;;
15293;SDS011;7748;52.474;13.454;2022-11-15T04:38:33;51.53;;;27.60;;
15293;SDS011;7748;52.474;13.454;2022-11-15T04:41:01;47.93;;;25.67;;
15293;SDS011;7748;52.474;13.454;2022-11-15T04:43:30;50.83;;;26.37;;
15293;SDS011;7748;52.474;13.454;2022-11-15T04:45:58;43.77;;;25.77;;
15293;SDS011;7748;52.474;13.454;2022-11-15T04:48:26;42.30;;;25.27;;
15293;SDS011;7748;52.474;13.454;2022-11-15T04:50:56;45.20;;;25.90;;
15293;SDS011;7748;52.474;13.454;2022-11-15T04:53:23;51.77;;;27.27;;
15293;SDS011;7748;52.474;13.454;2022-11-15T04:55:51;45.53;;;25.53;;
15293;SDS011;7748;52.474;13.454;2022-11-15T04:58:19;48.40;;;27.23;;
15293;SDS011;7748;52.474;13.454;2022-11-15T05:00:47;44.43;;;25.63;;
15293;SDS011;7748;52.474;13.454;2022-11-15T05:03:15;50.97;;;25.87;;
15293;SDS011;7748;52.474;13.454;2022-11-15T05:06:02;45.47;;;25.77;;
15293;SDS011;7748;52.474;13.454;2022-11-15T05:08:30;45.07;;;25.20;;
15293;SDS011;7748;52.474;13.454;2022-11-15T05:10:58;46.97;;;25.90;;
15293;SDS011;7748;52.474;13.454;2022-11-15T05:13:26;50.17;;;27.00;;
15293;SDS011;7748;52.474;13.454;2022-11-15T05:15:54;49.03;;;26.27;;
15293;SDS011;7748;52.474;13.454;2022-11-15T05:18:22;47.73;;;25.47;;
15293;SDS011;7748;52.474;13.454;2022-11-15T05:20:50;47.80;;;26.07;;
15293;SDS011;7748;52.474;13.454;2022-11-15T05:23:19;48.80;;;27.93;;
15293;SDS011;7748;52.474;13.454;2022-11-15T05:25:47;54.97;;;26.37;;
15293;SDS011;7748;52.474;13.454;2022-11-15T05:28:15;51.63;;;28.00;;
15293;SDS011;7748;52.474;13.454;2022-11-15T05:30:43;47.53;;;26.67;;
15293;SDS011;7748;52.474;13.454;2022-11-15T05:33:11;50.57;;;27.23;;
15293;SDS011;7748;52.474;13.454;2022-11-15T05:35:39;49.37;;;25.80;;
15293;SDS011;7748;52.474;13.454;2022-11-15T05:38:09;55.17;;;28.63;;
15293;SDS011;7748;52.474;13.454;2022-11-15T05:40:39;51.40;;;29.47;;
15293;SDS011;7748;52.474;13.454;2022-11-15T05:43:07;49.20;;;27.50;;
15293;SDS011;7748;52.474;13.454;2022-11-15T05:45:36;57.07;;;29.47;;
15293;SDS011;7748;52.474;13.454;2022-11-15T05:48:05;53.70;;;27.97;;
15293;SDS011;7748;52.474;13.454;2022-11-15T05:50:35;47.13;;;25.93;;
15293;SDS011;7748;52.474;13.454;2022-11-15T05:53:05;47.53;;;25.77;;
15293;SDS011;7748;52.474;13.454;2022-11-15T05:55:34;47.93;;;26.83;;
15293;SDS011;7748;52.474;13.454;2022-11-15T05:58:03;50.37;;;26.50;;
15293;SDS011;7748;52.474;13.454;2022-11-15T06:00:31;46.10;;;24.60;;
15293;SDS011;7748;52.474;13.454;2022-11-15T06:02:59;50.27;;;26.63;;
15293;SDS011;7748;52.474;13.454;2022-11-15T06:05:28;52.40;;;28.50;;
15293;SDS011;7748;52.474;13.454;2022-11-15T06:07:56;52.00;;;27.23;;
15293;SDS011;7748;52.474;13.454;2022-11-15T06:10:25;53.03;;;25.50;;
15293;SDS011;7748;52.474;13.454;2022-11-15T06:12:56;50.17;;;26.13;;
15293;SDS011;7748;52.474;13.454;2022-11-15T06:15:26;52.80;;;27.17;;
15293;SDS011;7748;52.474;13.454;2022-11-15T06:17:55;48.63;;;25.83;;
15293;SDS011;7748;52.474;13.454;2022-11-15T06:20:25;45.07;;;25.23;;
15293;SDS011;7748;52.474;13.454;2022-11-15T06:22:56;49.73;;;26.97;;
15293;SDS011;7748;52.474;13.454;2022-11-15T06:25:25;47.50;;;25.43;;
15293;SDS011;7748;52.474;13.454;2022-11-15T06:27:53;51.93;;;24.60;;
15293;SDS011;7748;52.474;13.454;2022-11-15T06:30:22;43.17;;;24.47;;
15293;SDS011;7748;52.474;13.454;2022-11-15T06:32:53;51.13;;;27.50;;
15293;SDS011;7748;52.474;13.454;2022-11-15T06:35:29;52.70;;;25.70;;
15293;SDS011;7748;52.474;13.454;2022-11-15T06:38:01;47.67;;;24.97;;
15293;SDS011;7748;52.474;13.454;2022-11-15T06:40:32;53.83;;;26.67;;
15293;SDS011;7748;52.474;13.454;2022-11-15T06:43:01;47.13;;;25.20;;
15293;SDS011;7748;52.474;13.454;2022-11-15T06:45:29;50.47;;;26.00;;
15293;SDS011;7748;52.474;13.454;2022-11-15T06:47:59;49.20;;;26.30;;
15293;SDS011;7748;52.474;13.454;2022-11-15T06:50:27;55.17;;;26.67;;
15293;SDS011;7748;52.474;13.454;2022-11-15T06:52:55;55.23;;;28.10;;
15293;SDS011;7748;52.474;13.454;2022-11-15T06:55:27;59.53;;;28.13;;
15293;SDS011;7748;52.474;13.454;2022-11-15T06:57:55;54.00;;;28.63;;
15293;SDS011;7748;52.474;13.454;2022-11-15T07:00:23;53.30;;;26.63;;
15293;SDS011;7748;52.474;13.454;2022-11-15T07:02:51;54.20;;;28.03;;
15293;SDS011;7748;52.474;13.454;2022-11-15T07:05:20;56.73;;;30.33;;
15293;SDS011;7748;52.474;13.454;2022-11-15T07:07:51;48.20;;;25.23;;
15293;SDS011;7748;52.474;13.454;2022-11-15T07:10:20;48.97;;;27.40;;
15293;SDS011;7748;52.474;13.454;2022-11-15T07:12:50;47.73;;;26.53;;
15293;SDS011;7748;52.474;13.454;2022-11-15T07:15:19;52.40;;;26.90;;
15293;SDS011;7748;52.474;13.454;2022-11-15T07:17:50;55.73;;;28.40;;
15293;SDS011;7748;52.474;13.454;2022-11-15T07:20:18;50.33;;;26.63;;
15293;SDS011;7748;52.474;13.454;2022-11-15T07:22:48;54.67;;;27.30;;
15293;SDS011;7748;52.474;13.454;2022-11-15T07:25:16;53.77;;;27.40;;
15293;SDS011;7748;52.474;13.454;2022-11-15T07:27:44;56.67;;;28.03;;
15293;SDS011;7748;52.474;13.454;2022-11-15T07:30:22;51.50;;;25.90;;
15293;SDS011;7748;52.474;13.454;2022-11-15T07:32:52;52.57;;;26.20;;
15293;SDS011;7748;52.474;13.454;2022-11-15T07:35:24;54.27;;;26.67;;
15293;SDS011;7748;52.474;13.454;2022-11-15T07:37:55;55.00;;;28.37;;
15293;SDS011;7748;52.474;13.454;2022-11-15T07:40:24;50.40;;;27.43;;
15293;SDS011;7748;52.474;13.454;2022-11-15T07:42:52;53.87;;;29.03;;
15293;SDS011;7748;52.474;13.454;2022-11-15T07:45:26;57.33;;;25.53;;
15293;SDS011;7748;52.474;13.454;2022-11-15T07:47:54;53.30;;;27.37;;
15293;SDS011;7748;52.474;13.454;2022-11-15T07:50:23;54.20;;;30.90;;
15293;SDS011;7748;52.474;13.454;2022-11-15T07:52:55;48.93;;;26.83;;
15293;SDS011;7748;52.474;13.454;2022-11-15T07:55:25;48.53;;;27.83;;
15293;SDS011;7748;52.474;13.454;2022-11-15T07:57:59;58.40;;;28.20;;
15293;SDS011;7748;52.474;13.454;2022-11-15T08:00:28;46.70;;;25.37;;
15293;SDS011;7748;52.474;13.454;2022-11-15T08:03:03;57.37;;;27.20;;
15293;SDS011;7748;52.474;13.454;2022-11-15T08:05:32;52.57;;;26.77;;
15293;SDS011;7748;52.474;13.454;2022-11-15T08:08:03;47.83;;;25.57;;
15293;SDS011;7748;52.474;13.454;2022-11-15T08:10:32;50.47;;;26.77;;
15293;SDS011;7748;52.474;13.454;2022-11-15T08:13:06;50.50;;;26.67;;
15293;SDS011;7748;52.474;13.454;2022-11-15T08:15:36;44.40;;;25.87;;
15293;SDS011;7748;52.474;13.454;2022-11-15T08:18:05;50.47;;;28.33;;
15293;SDS011;7748;52.474;13.454;2022-11-15T08:20:36;52.93;;;25.40;;
15293;SDS011;7748;52.474;13.454;2022-11-15T08:23:05;51.67;;;26.63;;
15293;SDS011;7748;52.474;13.454;2022-11-15T08:25:34;49.77;;;26.73;;
15293;SDS011;7748;52.474;13.454;2022-11-15T08:28:03;47.13;;;26.73;;
15293;SDS011;7748;52.474;13.454;2022-11-15T08:30:34;51.73;;;27.17;;
15293;SDS011;7748;52.474;13.454;2022-11-15T08:33:04;46.67;;;26.50;;
15293;SDS011;7748;52.474;13.454;2022-11-15T08:35:32;45.67;;;25.07;;
15293;SDS011;7748;52.474;13.454;2022-11-15T08:38:00;47.77;;;25.93;;
15293;SDS011;7748;52.474;13.454;2022-11-15T08:40:29;42.20;;;24.40;;
15293;SDS011;7748;52.474;13.454;2022-11-15T08:42:57;48.97;;;28.00;;
15293;SDS011;7748;52.474;13.454;2022-11-15T08:45:28;46.77;;;26.83;;
15293;SDS011;7748;52.474;13.454;2022-11-15T08:47:57;47.90;;;25.17;;
15293;SDS011;7748;52.474;13.454;2022-11-15T08:50:25;44.30;;;25.13;;
15293;SDS011;7748;52.474;13.454;2022-11-15T08:52:53;50.93;;;27.33;;
15293;SDS011;7748;52.474;13.454;2022-11-15T08:55:21;44.30;;;25.00;;
15293;SDS011;7748;52.474;13.454;2022-11-15T08:57:51;42.20;;;24.43;;
15293;SDS011;7748;52.474;13.454;2022-11-15T09:00:19;42.40;;;25.07;;
15293;SDS011;7748;52.474;13.454;2022-11-15T09:02:47;41.23;;;24.80;;
15293;SDS011;7748;52.474;13.454;2022-11-15T09:05:15;45.83;;;27.23;;
15293;SDS011;7748;52.474;13.454;2022-11-15T09:07:44;42.07;;;25.90;;
15293;SDS011;7748;52.474;13.454;2022-11-15T09:10:12;40.53;;;23.40;;
15293;SDS011;7748;52.474;13.454;2022-11-15T09:12:40;44.33;;;26.23;;
15293;SDS011;7748;52.474;13.454;2022-11-15T09:15:10;41.30;;;24.53;;
15293;SDS011;7748;52.474;13.454;2022-11-15T09:17:38;42.63;;;23.43;;
15293;SDS011;7748;52.474;13.454;2022-11-15T09:20:07;44.47;;;25.83;;
15293;SDS011;7748;52.474;13.454;2022-11-15T09:22:36;43.50;;;23.97;;
15293;SDS011;7748;52.474;13.454;2022-11-15T09:25:05;38.33;;;22.07;;
15293;SDS011;7748;52.474;13.454;2022-11-15T09:27:36;39.27;;;21.60;;
15293;SDS011;7748;52.474;13.454;2022-11-15T09:30:05;39.00;;;21.37;;
15293;SDS011;7748;52.474;13.454;2022-11-15T09:32:35;34.87;;;20.30;;
15293;SDS011;7748;52.474;13.454;2022-11-15T09:35:05;40.20;;;21.87;;
15293;SDS011;7748;52.474;13.454;2022-11-15T09:37:33;32.67;;;19.87;;
15293;SDS011;7748;52.474;13.454;2022-11-15T09:40:01;35.73;;;18.57;;
15293;SDS011;7748;52.474;13.454;2022-11-15T09:42:39;33.40;;;21.03;;
15293;SDS011;7748;52.474;13.454;2022-11-15T09:45:18;31.93;;;18.87;;
15293;SDS011;7748;52.474;13.454;2022-11-15T09:47:59;36.37;;;22.10;;
15293;SDS011;7748;52.474;13.454;2022-11-15T09:50:50;33.00;;;19.70;;
15293;SDS011;7748;52.474;13.454;2022-11-15T09:53:21;33.53;;;19.37;;
15293;SDS011;7748;52.474;13.454;2022-11-15T09:56:14;27.10;;;18.20;;
15293;SDS011;7748;52.474;13.454;2022-11-15T09:58:44;34.33;;;20.57;;
15293;SDS011;7748;52.474;13.454;2022-11-15T10:01:22;26.63;;;16.83;;
15293;SDS011;7748;52.474;13.454;2022-11-15T10:04:03;25.77;;;16.13;;
15293;SDS011;7748;52.474;13.454;2022-11-15T10:06:38;26.30;;;16.07;;
15293;SDS011;7748;52.474;13.454;2022-11-15T10:09:12;25.87;;;16.30;;
15293;SDS011;7748;52.474;13.454;2022-11-15T10:11:48;27.57;;;15.83;;
15293;SDS011;7748;52.474;13.454;2022-11-15T10:14:17;28.93;;;16.30;;
15293;SDS011;7748;52.474;13.454;2022-11-15T10:19:59;26.80;;;15.57;;
15293;SDS011;7748;52.474;13.454;2022-11-15T10:22:35;25.50;;;15.93;;
15293;SDS011;7748;52.474;13.454;2022-11-15T10:25:10;25.30;;;16.10;;
15293;SDS011;7748;52.474;13.454;2022-11-15T10:27:44;29.10;;;16.93;;
15293;SDS011;7748;52.474;13.454;2022-11-15T10:30:18;32.90;;;21.00;;
15293;SDS011;7748;52.474;13.454;2022-11-15T10:32:51;29.57;;;17.77;;
15293;SDS011;7748;52.474;13.454;2022-11-15T10:35:22;24.37;;;15.70;;
15293;SDS011;7748;52.474;13.454;2022-11-15T10:37:52;24.30;;;15.40;;
15293;SDS011;7748;52.474;13.454;2022-11-15T10:40:32;24.53;;;15.30;;
15293;SDS011;7748;52.474;13.454;2022-11-15T10:43:05;30.57;;;16.80;;
15293;SDS011;7748;52.474;13.454;2022-11-15T10:45:43;22.23;;;14.20;;
15293;SDS011;7748;52.474;13.454;2022-11-15T10:48:22;34.43;;;19.97;;
15293;SDS011;7748;52.474;13.454;2022-11-15T10:50:52;34.70;;;16.57;;
15293;SDS011;7748;52.474;13.454;2022-11-15T10:53:31;29.17;;;15.40;;
15293;SDS011;7748;52.474;13.454;2022-11-15T10:56:06;23.97;;;14.37;;
15293;SDS011;7748;52.474;13.454;2022-11-15T10:58:39;28.50;;;15.87;;
15293;SDS011;7748;52.474;13.454;2022-11-15T11:01:10;29.60;;;16.47;;
15293;SDS011;7748;52.474;13.454;2022-11-15T11:03:40;23.53;;;14.90;;
15293;SDS011;7748;52.474;13.454;2022-11-15T11:06:12;24.33;;;15.20;;
15293;SDS011;7748;52.474;13.454;2022-11-15T11:08:52;23.60;;;16.27;;
15293;SDS011;7748;52.474;13.454;2022-11-15T11:11:22;24.27;;;14.33;;
15293;SDS011;7748;52.474;13.454;2022-11-15T11:13:51;29.10;;;15.40;;
15293;SDS011;7748;52.474;13.454;2022-11-15T11:19:23;27.97;;;14.57;;
15293;SDS011;7748;52.474;13.454;2022-11-15T11:22:12;26.77;;;15.90;;
15293;SDS011;7748;52.474;13.454;2022-11-15T11:24:48;23.07;;;14.93;;
15293;SDS011;7748;52.474;13.454;2022-11-15T11:27:32;23.07;;;14.57;;
15293;SDS011;7748;52.474;13.454;2022-11-15T11:30:12;20.37;;;13.40;;
15293;SDS011;7748;52.474;13.454;2022-11-15T11:32:50;27.53;;;18.30;;
15293;SDS011;7748;52.474;13.454;2022-11-15T11:35:34;24.67;;;14.83;;
15293;SDS011;7748;52.474;13.454;2022-11-15T11:38:19;25.37;;;14.70;;
15293;SDS011;7748;52.474;13.454;2022-11-15T11:41:01;26.57;;;14.47;;
15293;SDS011;7748;52.474;13.454;2022-11-15T11:43:45;22.47;;;14.23;;
15293;SDS011;7748;52.474;13.454;2022-11-15T11:46:45;30.90;;;17.23;;
15293;SDS011;7748;52.474;13.454;2022-11-15T11:49:18;27.10;;;15.50;;
15293;SDS011;7748;52.474;13.454;2022-11-15T11:51:51;25.27;;;14.63;;
15293;SDS011;7748;52.474;13.454;2022-11-15T11:54:28;19.50;;;13.77;;
15293;SDS011;7748;52.474;13.454;2022-11-15T11:57:02;22.23;;;16.40;;
15293;SDS011;7748;52.474;13.454;2022-11-15T11:59:37;26.00;;;15.50;;
15293;SDS011;7748;52.474;13.454;2022-11-15T12:02:12;24.53;;;15.13;;
15293;SDS011;7748;52.474;13.454;2022-11-15T12:04:47;23.33;;;14.47;;
15293;SDS011;7748;52.474;13.454;2022-11-15T12:07:20;26.50;;;16.17;;
15293;SDS011;7748;52.474;13.454;2022-11-15T12:09:53;24.30;;;15.30;;
15293;SDS011;7748;52.474;13.454;2022-11-15T12:12:27;24.60;;;14.40;;
15293;SDS011;7748;52.474;13.454;2022-11-15T12:15:03;27.80;;;15.90;;
15293;SDS011;7748;52.474;13.454;2022-11-15T12:17:39;24.57;;;14.17;;
15293;SDS011;7748;52.474;13.454;2022-11-15T12:20:14;24.90;;;14.47;;
15293;SDS011;7748;52.474;13.454;2022-11-15T12:22:46;19.80;;;14.13;;
15293;SDS011;7748;52.474;13.454;2022-11-15T12:25:23;21.67;;;14.27;;
15293;SDS011;7748;52.474;13.454;2022-11-15T12:27:57;23.93;;;13.40;;
15293;SDS011;7748;52.474;13.454;2022-11-15T12:30:42;23.97;;;14.73;;
15293;SDS011;7748;52.474;13.454;2022-11-15T12:33:36;20.87;;;14.33;;
15293;SDS011;7748;52.474;13.454;2022-11-15T12:36:08;21.60;;;14.27;;
15293;SDS011;7748;52.474;13.454;2022-11-15T12:38:54;23.10;;;14.10;;
15293;SDS011;7748;52.474;13.454;2022-11-15T12:41:25;27.43;;;14.90;;
15293;SDS011;7748;52.474;13.454;2022-11-15T12:43:55;18.93;;;13.90;;
15293;SDS011;7748;52.474;13.454;2022-11-15T12:52:12;23.73;;;14.07;;
15293;SDS011;7748;52.474;13.454;2022-11-15T12:54:53;30.43;;;20.27;;
15293;SDS011;7748;52.474;13.454;2022-11-15T12:57:30;19.93;;;13.20;;
15293;SDS011;7748;52.474;13.454;2022-11-15T13:03:20;21.30;;;14.20;;
15293;SDS011;7748;52.474;13.454;2022-11-15T13:08:57;23.20;;;13.17;;
15293;SDS011;7748;52.474;13.454;2022-11-15T13:17:24;18.17;;;11.73;;
15293;SDS011;7748;52.474;13.454;2022-11-15T13:20:00;22.97;;;12.30;;
15293;SDS011;7748;52.474;13.454;2022-11-15T13:22:44;21.50;;;12.00;;
15293;SDS011;7748;52.474;13.454;2022-11-15T13:28:39;21.60;;;12.63;;
15293;SDS011;7748;52.474;13.454;2022-11-15T13:34:12;19.37;;;11.67;;
15293;SDS011;7748;52.474;13.454;2022-11-15T13:37:04;23.93;;;14.07;;
15293;SDS011;7748;52.474;13.454;2022-11-15T13:39:40;18.83;;;12.70;;
15293;SDS011;7748;52.474;13.454;2022-11-15T13:42:13;22.07;;;12.43;;
15293;SDS011;7748;52.474;13.454;2022-11-15T13:44:53;20.17;;;11.33;;
15293;SDS011;7748;52.474;13.454;2022-11-15T13:47:26;22.23;;;12.53;;
15293;SDS011;7748;52.474;13.454;2022-11-15T13:49:56;24.07;;;12.33;;
15293;SDS011;7748;52.474;13.454;2022-11-15T13:52:25;30.47;;;13.67;;
15293;SDS011;7748;52.474;13.454;2022-11-15T13:54:59;17.97;;;11.10;;
15293;SDS011;7748;52.474;13.454;2022-11-15T13:57:34;17.80;;;10.97;;
15293;SDS011;7748;52.474;13.454;2022-11-15T14:00:24;21.07;;;11.27;;
15293;SDS011;7748;52.474;13.454;2022-11-15T14:02:56;18.93;;;12.07;;
15293;SDS011;7748;52.474;13.454;2022-11-15T14:05:31;20.50;;;13.17;;
15293;SDS011;7748;52.474;13.454;2022-11-15T14:08:00;16.60;;;10.97;;
15293;SDS011;7748;52.474;13.454;2022-11-15T14:10:32;16.17;;;11.10;;
15293;SDS011;7748;52.474;13.454;2022-11-15T14:13:02;16.73;;;12.23;;
15293;SDS011;7748;52.474;13.454;2022-11-15T14:15:32;18.43;;;11.27;;
15293;SDS011;7748;52.474;13.454;2022-11-15T14:18:02;18.67;;;10.87;;
15293;SDS011;7748;52.474;13.454;2022-11-15T14:20:32;17.23;;;11.60;;
15293;SDS011;7748;52.474;13.454;2022-11-15T14:23:02;18.37;;;12.60;;
15293;SDS011;7748;52.474;13.454;2022-11-15T14:25:31;18.90;;;12.87;;
15293;SDS011;7748;52.474;13.454;2022-11-15T14:28:11;20.30;;;13.60;;
15293;SDS011;7748;52.474;13.454;2022-11-15T14:30:55;22.30;;;12.07;;
15293;SDS011;7748;52.474;13.454;2022-11-15T14:33:27;16.43;;;11.60;;
15293;SDS011;7748;52.474;13.454;2022-11-15T14:35:58;20.00;;;12.20;;
15293;SDS011;7748;52.474;13.454;2022-11-15T14:38:31;19.83;;;12.10;;
15293;SDS011;7748;52.474;13.454;2022-11-15T14:41:01;16.73;;;11.90;;
15293;SDS011;7748;52.474;13.454;2022-11-15T14:43:29;20.43;;;10.87;;
15293;SDS011;7748;52.474;13.454;2022-11-15T14:45:57;17.60;;;11.90;;
15293;SDS011;7748;52.474;13.454;2022-11-15T14:48:26;18.40;;;12.70;;
15293;SDS011;7748;52.474;13.454;2022-11-15T14:50:55;18.53;;;12.73;;
15293;SDS011;7748;52.474;13.454;2022-11-15T14:53:24;19.13;;;12.33;;
15293;SDS011;7748;52.474;13.454;2022-11-15T14:55:51;90.93;;;44.00;;
15293;SDS011;7748;52.474;13.454;2022-11-15T14:58:19;19.70;;;12.17;;
15293;SDS011;7748;52.474;13.454;2022-11-15T15:00:47;18.23;;;12.77;;
15293;SDS011;7748;52.474;13.454;2022-11-15T15:03:15;19.20;;;13.33;;
15293;SDS011;7748;52.474;13.454;2022-11-15T15:05:44;19.50;;;12.70;;
15293;SDS011;7748;52.474;13.454;2022-11-15T15:08:12;47.83;;;30.37;;
15293;SDS011;7748;52.474;13.454;2022-11-15T15:10:40;30.40;;;22.03;;
15293;SDS011;7748;52.474;13.454;2022-11-15T15:13:12;21.40;;;13.93;;
15293;SDS011;7748;52.474;13.454;2022-11-15T15:15:44;21.47;;;12.90;;
15293;SDS011;7748;52.474;13.454;2022-11-15T15:18:12;27.13;;;16.23;;
15293;SDS011;7748;52.474;13.454;2022-11-15T15:20:40;30.23;;;15.33;;
15293;SDS011;7748;52.474;13.454;2022-11-15T15:23:16;20.37;;;13.77;;
15293;SDS011;7748;52.474;13.454;2022-11-15T15:25:45;22.20;;;13.83;;
15293;SDS011;7748;52.474;13.454;2022-11-15T15:28:15;24.63;;;14.30;;
15293;SDS011;7748;52.474;13.454;2022-11-15T15:30:43;26.53;;;16.00;;
15293;SDS011;7748;52.474;13.454;2022-11-15T15:33:11;24.53;;;15.40;;
15293;SDS011;7748;52.474;13.454;2022-11-15T15:35:39;23.70;;;13.87;;
15293;SDS011;7748;52.474;13.454;2022-11-15T15:38:08;23.37;;;15.50;;
15293;SDS011;7748;52.474;13.454;2022-11-15T15:40:39;23.53;;;14.63;;
15293;SDS011;7748;52.474;13.454;2022-11-15T15:43:07;21.33;;;14.77;;
15293;SDS011;7748;52.474;13.454;2022-11-15T15:45:36;21.53;;;14.07;;
15293;SDS011;7748;52.474;13.454;2022-11-15T15:48:05;32.97;;;20.27;;
15293;SDS011;7748;52.474;13.454;2022-11-15T15:50:37;42.40;;;24.53;;
15293;SDS011;7748;52.474;13.454;2022-11-15T15:53:04;37.97;;;22.07;;
15293;SDS011;7748;52.474;13.454;2022-11-15T15:55:34;35.63;;;19.77;;
15293;SDS011;7748;52.474;13.454;2022-11-15T15:58:03;28.90;;;16.13;;